Sealand Washington — 9HA3421 — position and weather

sailwx.info

Track history (hours):
 
Tides and Currents Weather Stations Pressure Air Temp Water Temp Dewpoint Dewpoint Depression Visibility Wind Speed Wind Dir Waves Ship Positions

Sealand Washington

Last reported at 2017-Nov-16 10:42 UTC. Time now 2017-Nov-20 13:40 UTC.
Position N 37°08' W 029°31'.

Length 304 m; draft 13.8 m.

Type: Ship (hazmat cat A). MMSI: 229577000.

Date/timePositionNaut miles runAvg speedWind from/ knotsBaromVisibWave heightAir tempDewpointWater temp
2017-Nov-16 10:42N 37°08' W 029°31'518.2
2017-Nov-16 10:25N 37°08' W 029°24'1518.5
2017-Nov-16 09:37N 37°07' W 029°06'218.3
2017-Nov-16 09:30N 37°07' W 029°03'918.5
2017-Nov-16 09:00N 37°07' W 028°52'918.3
2017-Nov-16 08:30N 37°07' W 028°40'918.1
2017-Nov-16 08:00N 37°07' W 028°29'918.4
2017-Nov-16 07:30N 37°07' W 028°17'918.3
2017-Nov-16 07:00N 37°07' W 028°06'918.3
2017-Nov-16 06:31N 37°07' W 027°54'918.8
2017-Nov-16 06:00N 37°07' W 027°43'2319.0
2017-Nov-16 04:49N 37°07' W 027°14'618.9
2017-Nov-16 04:30N 37°07' W 027°07'918.6
2017-Nov-16 04:00N 37°07' W 026°55'918.7
2017-Nov-16 03:31N 37°07' W 026°44'918.8
2017-Nov-16 03:00N 37°07' W 026°32'918.8
2017-Nov-16 02:30N 37°07' W 026°20'918.3
2017-Nov-16 02:00N 37°07' W 026°08'918.5
2017-Nov-16 01:30N 37°07' W 025°57'918.5
2017-Nov-16 01:00N 37°06' W 025°45'918.4
2017-Nov-16 00:30N 37°07' W 025°34'918.3
2017-Nov-16 00:00N 37°07' W 025°22'918.3
2017-Nov-15 23:30N 37°07' W 025°11'918.7
2017-Nov-15 23:01N 37°07' W 024°59'918.3
2017-Nov-15 22:30N 37°07' W 024°48'918.4
2017-Nov-15 22:01N 37°07' W 024°36'918.2
2017-Nov-15 21:31N 37°07' W 024°25'918.4
2017-Nov-15 21:00N 37°08' W 024°13'918.4
2017-Nov-15 20:30N 37°08' W 024°02'918.1
2017-Nov-15 20:00N 37°09' W 023°50'918.0
2017-Nov-15 19:31N 37°09' W 023°39'917.9
2017-Nov-15 19:00N 37°10' W 023°28'1117.9
2017-Nov-15 18:24N 37°11' W 023°14'62017.5
2017-Nov-14 06:58N 37°51' W 010°14'916.6
2017-Nov-14 06:26N 37°52' W 010°03'716.7
2017-Nov-14 06:01N 37°52' W 009°54'816.9
2017-Nov-14 05:31N 37°52' W 009°43'917.1
2017-Nov-14 04:58N 37°52' W 009°32'816.8
2017-Nov-14 04:30N 37°53' W 009°22'816.8
2017-Nov-14 04:01N 37°53' W 009°11'917.9
2017-Nov-14 03:31N 37°53' W 008°60'714.8
2017-Nov-14 03:00N 37°55' W 008°51'1 2.4
2017-Nov-14 02:30N 37°56' W 008°51'0 0.0
2017-Nov-14 02:00N 37°56' W 008°51'0 0.0
2017-Nov-14 01:30N 37°56' W 008°51'0 0.0
2017-Nov-14 01:00N 37°56' W 008°51'0 0.0
2017-Nov-14 00:30N 37°56' W 008°51'0 0.1
2017-Nov-14 00:00N 37°56' W 008°51'0 0.0
2017-Nov-13 23:30N 37°56' W 008°51'0 0.0
2017-Nov-13 23:00N 37°56' W 008°51'0 0.0
2017-Nov-13 22:30N 37°56' W 008°51'0 0.0
2017-Nov-13 22:00N 37°56' W 008°51'194 9.7
2017-Nov-13 01:54N 35°58' W 005°38'615.4
2017-Nov-13 01:30N 35°59' W 005°31'714.4
2017-Nov-13 01:00N 36°04' W 005°23'611.3
2017-Nov-13 00:30N 36°09' W 005°25'1 0.3
2017-Nov-12 21:58N 36°08' W 005°26'0 0.0
2017-Nov-12 21:16N 36°08' W 005°26'0 0.0
2017-Nov-12 20:52N 36°08' W 005°26'0 0.0
2017-Nov-12 20:28N 36°08' W 005°26'0 0.0
2017-Nov-12 19:58N 36°08' W 005°26'0 0.0
2017-Nov-12 19:28N 36°08' W 005°26'0 0.0
2017-Nov-12 18:55N 36°08' W 005°26'0 0.0
2017-Nov-12 16:52N 36°08' W 005°26'0 0.0
2017-Nov-12 16:28N 36°08' W 005°26'0 0.0
2017-Nov-12 15:55N 36°08' W 005°26'0 0.0
2017-Nov-12 15:28N 36°08' W 005°26'0 0.0
2017-Nov-12 14:58N 36°08' W 005°26'0 0.0
2017-Nov-12 14:28N 36°08' W 005°26'0 0.0
2017-Nov-12 13:58N 36°08' W 005°26'0 0.0
2017-Nov-12 13:28N 36°08' W 005°26'0 0.0
2017-Nov-12 12:55N 36°08' W 005°26'0 0.0
2017-Nov-12 12:28N 36°08' W 005°26'0 0.0
2017-Nov-12 11:58N 36°08' W 005°26'0 0.0
2017-Nov-12 07:07N 36°08' W 005°26'0 0.4
2017-Nov-12 07:00N 36°09' W 005°26'2 3.6
2017-Nov-12 06:30N 36°08' W 005°24'3 5.2
2017-Nov-12 06:00N 36°06' W 005°23'4 8.0
2017-Nov-12 05:31N 36°04' W 005°18'4 8.6
2017-Nov-12 05:01N 36°05' W 005°13'0 0.7
2017-Nov-12 04:30N 36°05' W 005°13'1 1.2
2017-Nov-12 04:00N 36°05' W 005°12'1 1.2
2017-Nov-12 03:31N 36°06' W 005°12'3 5.4
2017-Nov-12 03:00N 36°04' W 005°15'0 0.5
2017-Nov-12 02:31N 36°05' W 005°15'1 1.2
2017-Nov-12 02:00N 36°05' W 005°14'0 0.9
2017-Nov-12 01:29N 36°06' W 005°14'0 0.6
2017-Nov-12 01:00N 36°06' W 005°14'0 0.6
2017-Nov-12 00:30N 36°06' W 005°13'0 0.6
2017-Nov-11 23:58N 36°06' W 005°13'0 0.8
2017-Nov-11 23:31N 36°06' W 005°13'0 0.8
2017-Nov-11 23:00N 36°07' W 005°12'0 0.8
2017-Nov-11 22:30N 36°07' W 005°12'0 0.9
2017-Nov-11 22:01N 36°07' W 005°12'0 0.9
2017-Nov-11 21:30N 36°08' W 005°12'0 0.8
2017-Nov-11 21:01N 36°08' W 005°12'0 0.2
2017-Nov-11 20:31N 36°08' W 005°12'2 4.2
2017-Nov-11 20:01N 36°07' W 005°09'20711.9
2017-Nov-11 02:35N 37°12' W 001°04'113.0
2017-Nov-11 02:29N 37°13' W 001°03'712.9
2017-Nov-11 01:58N 37°17' W 000°57'612.7
2017-Nov-11 01:30N 37°21' W 000°51'612.4
2017-Nov-11 01:00N 37°25' W 000°45'612.0
2017-Nov-11 00:30N 37°29' W 000°39'611.6
2017-Nov-11 00:00N 37°33' W 000°34'611.5
2017-Nov-10 23:30N 37°38' W 000°30'611.6
2017-Nov-10 23:00N 37°43' W 000°26'711.3
2017-Nov-10 22:21N 37°49' W 000°21'911.3
2017-Nov-10 21:35N 37°57' W 000°15'111.4
2017-Nov-10 21:28N 37°58' W 000°15'  
2017-Nov-07 21:45N 42°54' E 007°11'511.7
2017-Nov-07 21:21N 42°57' E 007°16'611.9
2017-Nov-07 20:51N 42°60' E 007°23'612.0
2017-Nov-07 20:22N 43°03' E 007°30'6211.9
2017-Nov-07 15:11N 43°49' E 008°28'212.4
2017-Nov-07 14:59N 43°51' E 008°29'612.2
2017-Nov-07 14:30N 43°56' E 008°33'612.1
2017-Nov-07 14:01N 44°02' E 008°35'612.1
2017-Nov-07 13:31N 44°08' E 008°37'612.2
2017-Nov-07 13:01N 44°14' E 008°39'612.4
2017-Nov-07 12:31N 44°20' E 008°41'611.5
2017-Nov-07 12:01N 44°25' E 008°45'2 4.1
2017-Nov-07 11:31N 44°25' E 008°48'0 0.0
2017-Nov-07 10:59N 44°25' E 008°48'0 0.0
2017-Nov-07 10:29N 44°25' E 008°48'0 0.0
2017-Nov-07 09:59N 44°25' E 008°48'0 0.0
2017-Nov-07 09:29N 44°25' E 008°48'0 0.0
2017-Nov-07 08:59N 44°25' E 008°48'0 0.0
2017-Nov-07 08:29N 44°25' E 008°48'0 0.0
2017-Nov-07 07:59N 44°25' E 008°48'0 0.0
2017-Nov-07 07:29N 44°25' E 008°48'0 0.0
2017-Nov-07 06:59N 44°25' E 008°48'0 0.0
2017-Nov-07 06:29N 44°25' E 008°48'0 0.0
2017-Nov-07 05:59N 44°25' E 008°48'0 0.0
2017-Nov-07 05:29N 44°25' E 008°48'0 0.0
2017-Nov-07 04:59N 44°25' E 008°48'0 0.0
2017-Nov-07 04:29N 44°25' E 008°48'0 0.0
2017-Nov-07 03:56N 44°25' E 008°48'0 0.0
2017-Nov-07 03:29N 44°25' E 008°48'0 0.0
2017-Nov-07 02:59N 44°25' E 008°48'0 0.0
2017-Nov-07 02:29N 44°25' E 008°48'0 0.0
2017-Nov-07 01:59N 44°25' E 008°48'0 0.0
2017-Nov-07 01:29N 44°25' E 008°48'0 0.0
2017-Nov-07 00:59N 44°25' E 008°48'0 0.0
2017-Nov-07 00:26N 44°25' E 008°48'0 0.0
2017-Nov-06 23:59N 44°25' E 008°48'0 0.0
2017-Nov-06 23:29N 44°25' E 008°48'0 0.0
2017-Nov-06 22:59N 44°25' E 008°48'0 0.0
2017-Nov-06 22:29N 44°25' E 008°48'1 2.7
2017-Nov-06 22:00N 44°25' E 008°46'3 6.3
2017-Nov-06 21:30N 44°22' E 008°43'3 6.3
2017-Nov-06 21:00N 44°20' E 008°45'4 8.6
2017-Nov-06 20:30N 44°18' E 008°50'  
Track history (hours):
 
Tides and Currents Weather Stations Pressure Air Temp Water Temp Dewpoint Dewpoint Depression Visibility Wind Speed Wind Dir Waves Ship Positions

Sealand Washington

Last reported at 2017-Nov-16 10:42 UTC. Time now 2017-Nov-20 13:40 UTC.
Position N 37°08' W 029°31'.

Length 304 m; draft 13.8 m.

Type: Ship (hazmat cat A). MMSI: 229577000.

Date/timePositionNaut miles runAvg speedWind from/ knotsBaromVisibWave heightAir tempDewpointWater temp
2017-Nov-16 10:42N 37°08' W 029°31'518.2
2017-Nov-16 10:25N 37°08' W 029°24'1518.5
2017-Nov-16 09:37N 37°07' W 029°06'218.3
2017-Nov-16 09:30N 37°07' W 029°03'918.5
2017-Nov-16 09:00N 37°07' W 028°52'918.3
2017-Nov-16 08:30N 37°07' W 028°40'918.1
2017-Nov-16 08:00N 37°07' W 028°29'918.4
2017-Nov-16 07:30N 37°07' W 028°17'918.3
2017-Nov-16 07:00N 37°07' W 028°06'918.3
2017-Nov-16 06:31N 37°07' W 027°54'918.8
2017-Nov-16 06:00N 37°07' W 027°43'2319.0
2017-Nov-16 04:49N 37°07' W 027°14'618.9
2017-Nov-16 04:30N 37°07' W 027°07'918.6
2017-Nov-16 04:00N 37°07' W 026°55'918.7
2017-Nov-16 03:31N 37°07' W 026°44'918.8
2017-Nov-16 03:00N 37°07' W 026°32'918.8
2017-Nov-16 02:30N 37°07' W 026°20'918.3
2017-Nov-16 02:00N 37°07' W 026°08'918.5
2017-Nov-16 01:30N 37°07' W 025°57'918.5
2017-Nov-16 01:00N 37°06' W 025°45'918.4
2017-Nov-16 00:30N 37°07' W 025°34'918.3
2017-Nov-16 00:00N 37°07' W 025°22'918.3
2017-Nov-15 23:30N 37°07' W 025°11'918.7
2017-Nov-15 23:01N 37°07' W 024°59'918.3
2017-Nov-15 22:30N 37°07' W 024°48'918.4
2017-Nov-15 22:01N 37°07' W 024°36'918.2
2017-Nov-15 21:31N 37°07' W 024°25'918.4
2017-Nov-15 21:00N 37°08' W 024°13'918.4
2017-Nov-15 20:30N 37°08' W 024°02'918.1
2017-Nov-15 20:00N 37°09' W 023°50'918.0
2017-Nov-15 19:31N 37°09' W 023°39'917.9
2017-Nov-15 19:00N 37°10' W 023°28'1117.9
2017-Nov-15 18:24N 37°11' W 023°14'62017.5
2017-Nov-14 06:58N 37°51' W 010°14'916.6
2017-Nov-14 06:26N 37°52' W 010°03'716.7
2017-Nov-14 06:01N 37°52' W 009°54'816.9
2017-Nov-14 05:31N 37°52' W 009°43'917.1
2017-Nov-14 04:58N 37°52' W 009°32'816.8
2017-Nov-14 04:30N 37°53' W 009°22'816.8
2017-Nov-14 04:01N 37°53' W 009°11'917.9
2017-Nov-14 03:31N 37°53' W 008°60'714.8
2017-Nov-14 03:00N 37°55' W 008°51'1 2.4
2017-Nov-14 02:30N 37°56' W 008°51'0 0.0
2017-Nov-14 02:00N 37°56' W 008°51'0 0.0
2017-Nov-14 01:30N 37°56' W 008°51'0 0.0
2017-Nov-14 01:00N 37°56' W 008°51'0 0.0
2017-Nov-14 00:30N 37°56' W 008°51'0 0.1
2017-Nov-14 00:00N 37°56' W 008°51'0 0.0
2017-Nov-13 23:30N 37°56' W 008°51'0 0.0
2017-Nov-13 23:00N 37°56' W 008°51'0 0.0
2017-Nov-13 22:30N 37°56' W 008°51'0 0.0
2017-Nov-13 22:00N 37°56' W 008°51'194 9.7
2017-Nov-13 01:54N 35°58' W 005°38'615.4
2017-Nov-13 01:30N 35°59' W 005°31'714.4
2017-Nov-13 01:00N 36°04' W 005°23'611.3
2017-Nov-13 00:30N 36°09' W 005°25'1 0.3
2017-Nov-12 21:58N 36°08' W 005°26'0 0.0
2017-Nov-12 21:16N 36°08' W 005°26'0 0.0
2017-Nov-12 20:52N 36°08' W 005°26'0 0.0
2017-Nov-12 20:28N 36°08' W 005°26'0 0.0
2017-Nov-12 19:58N 36°08' W 005°26'0 0.0
2017-Nov-12 19:28N 36°08' W 005°26'0 0.0
2017-Nov-12 18:55N 36°08' W 005°26'0 0.0
2017-Nov-12 16:52N 36°08' W 005°26'0 0.0
2017-Nov-12 16:28N 36°08' W 005°26'0 0.0
2017-Nov-12 15:55N 36°08' W 005°26'0 0.0
2017-Nov-12 15:28N 36°08' W 005°26'0 0.0
2017-Nov-12 14:58N 36°08' W 005°26'0 0.0
2017-Nov-12 14:28N 36°08' W 005°26'0 0.0
2017-Nov-12 13:58N 36°08' W 005°26'0 0.0
2017-Nov-12 13:28N 36°08' W 005°26'0 0.0
2017-Nov-12 12:55N 36°08' W 005°26'0 0.0
2017-Nov-12 12:28N 36°08' W 005°26'0 0.0
2017-Nov-12 11:58N 36°08' W 005°26'0 0.0
2017-Nov-12 07:07N 36°08' W 005°26'0 0.4
2017-Nov-12 07:00N 36°09' W 005°26'2 3.6
2017-Nov-12 06:30N 36°08' W 005°24'3 5.2
2017-Nov-12 06:00N 36°06' W 005°23'4 8.0
2017-Nov-12 05:31N 36°04' W 005°18'4 8.6
2017-Nov-12 05:01N 36°05' W 005°13'0 0.7
2017-Nov-12 04:30N 36°05' W 005°13'1 1.2
2017-Nov-12 04:00N 36°05' W 005°12'1 1.2
2017-Nov-12 03:31N 36°06' W 005°12'3 5.4
2017-Nov-12 03:00N 36°04' W 005°15'0 0.5
2017-Nov-12 02:31N 36°05' W 005°15'1 1.2
2017-Nov-12 02:00N 36°05' W 005°14'0 0.9
2017-Nov-12 01:29N 36°06' W 005°14'0 0.6
2017-Nov-12 01:00N 36°06' W 005°14'0 0.6
2017-Nov-12 00:30N 36°06' W 005°13'0 0.6
2017-Nov-11 23:58N 36°06' W 005°13'0 0.8
2017-Nov-11 23:31N 36°06' W 005°13'0 0.8
2017-Nov-11 23:00N 36°07' W 005°12'0 0.8
2017-Nov-11 22:30N 36°07' W 005°12'0 0.9
2017-Nov-11 22:01N 36°07' W 005°12'0 0.9
2017-Nov-11 21:30N 36°08' W 005°12'0 0.8
2017-Nov-11 21:01N 36°08' W 005°12'0 0.2
2017-Nov-11 20:31N 36°08' W 005°12'2 4.2
2017-Nov-11 20:01N 36°07' W 005°09'20711.9
2017-Nov-11 02:35N 37°12' W 001°04'113.0
2017-Nov-11 02:29N 37°13' W 001°03'712.9
2017-Nov-11 01:58N 37°17' W 000°57'612.7
2017-Nov-11 01:30N 37°21' W 000°51'612.4
2017-Nov-11 01:00N 37°25' W 000°45'612.0
2017-Nov-11 00:30N 37°29' W 000°39'611.6
2017-Nov-11 00:00N 37°33' W 000°34'611.5
2017-Nov-10 23:30N 37°38' W 000°30'611.6
2017-Nov-10 23:00N 37°43' W 000°26'711.3
2017-Nov-10 22:21N 37°49' W 000°21'911.3
2017-Nov-10 21:35N 37°57' W 000°15'111.4
2017-Nov-10 21:28N 37°58' W 000°15'  
2017-Nov-07 21:45N 42°54' E 007°11'511.7
2017-Nov-07 21:21N 42°57' E 007°16'611.9
2017-Nov-07 20:51N 42°60' E 007°23'612.0
2017-Nov-07 20:22N 43°03' E 007°30'6211.9
2017-Nov-07 15:11N 43°49' E 008°28'212.4
2017-Nov-07 14:59N 43°51' E 008°29'612.2
2017-Nov-07 14:30N 43°56' E 008°33'612.1
2017-Nov-07 14:01N 44°02' E 008°35'612.1
2017-Nov-07 13:31N 44°08' E 008°37'612.2
2017-Nov-07 13:01N 44°14' E 008°39'612.4
2017-Nov-07 12:31N 44°20' E 008°41'611.5
2017-Nov-07 12:01N 44°25' E 008°45'2 4.1
2017-Nov-07 11:31N 44°25' E 008°48'0 0.0
2017-Nov-07 10:59N 44°25' E 008°48'0 0.0
2017-Nov-07 10:29N 44°25' E 008°48'0 0.0
2017-Nov-07 09:59N 44°25' E 008°48'0 0.0
2017-Nov-07 09:29N 44°25' E 008°48'0 0.0
2017-Nov-07 08:59N 44°25' E 008°48'0 0.0
2017-Nov-07 08:29N 44°25' E 008°48'0 0.0
2017-Nov-07 07:59N 44°25' E 008°48'0 0.0
2017-Nov-07 07:29N 44°25' E 008°48'0 0.0
2017-Nov-07 06:59N 44°25' E 008°48'0 0.0
2017-Nov-07 06:29N 44°25' E 008°48'0 0.0
2017-Nov-07 05:59N 44°25' E 008°48'0 0.0
2017-Nov-07 05:29N 44°25' E 008°48'0 0.0
2017-Nov-07 04:59N 44°25' E 008°48'0 0.0
2017-Nov-07 04:29N 44°25' E 008°48'0 0.0
2017-Nov-07 03:56N 44°25' E 008°48'0 0.0
2017-Nov-07 03:29N 44°25' E 008°48'0 0.0
2017-Nov-07 02:59N 44°25' E 008°48'0 0.0
2017-Nov-07 02:29N 44°25' E 008°48'0 0.0
2017-Nov-07 01:59N 44°25' E 008°48'0 0.0
2017-Nov-07 01:29N 44°25' E 008°48'0 0.0
2017-Nov-07 00:59N 44°25' E 008°48'0 0.0
2017-Nov-07 00:26N 44°25' E 008°48'0 0.0
2017-Nov-06 23:59N 44°25' E 008°48'0 0.0
2017-Nov-06 23:29N 44°25' E 008°48'0 0.0
2017-Nov-06 22:59N 44°25' E 008°48'0 0.0
2017-Nov-06 22:29N 44°25' E 008°48'1 2.7
2017-Nov-06 22:00N 44°25' E 008°46'3 6.3
2017-Nov-06 21:30N 44°22' E 008°43'3 6.3
2017-Nov-06 21:00N 44°20' E 008°45'4 8.6
2017-Nov-06 20:30N 44°18' E 008°50'  

Dump ship's entire track history